OAS250 SKBO-MDSD
Flight info
| Callsign | OAS250 |
|---|---|
| Flight time | 2h 8m |
| Altitude | 33000 |
| Route | OSUSU4R GIKPU UQ120 PADUD DCT CJN DCT VESKA DCT DELPO DELPO2G |
| Aircraft | A320/M-SDE3FGHIRWY/LB1 |
Departure
| Time | 2026-05-03 21:22 |
|---|---|
| Airport | El Dorado International Airport (SKBO) |
Arrival
| Time | 2026-05-03 23:30 |
|---|---|
| Airport | Las Américas International Airport (MDSD) |
| Time | Latitude | Longitude | Altitude | Speed | Heading |
|---|---|---|---|---|---|
| 2026-05-03 21:07 | 4.69828 | -74.14590 | 8397 ft | 0 kts | 68° |
| 2026-05-03 21:10 | 4.69827 | -74.14591 | 8398 ft | 3 kts | 68° |
| 2026-05-03 21:11 | 4.69816 | -74.14613 | 8371 ft | 4 kts | 54° |
| 2026-05-03 21:11 | 4.69805 | -74.14625 | 8371 ft | 2 kts | 6° |
| 2026-05-03 21:11 | 4.69789 | -74.14622 | 8371 ft | 3 kts | 325° |
| 2026-05-03 21:11 | 4.69775 | -74.14611 | 8371 ft | 2 kts | 314° |
| 2026-05-03 21:12 | 4.69767 | -74.14601 | 8371 ft | 2 kts | 311° |
| 2026-05-03 21:12 | 4.69759 | -74.14593 | 8371 ft | 2 kts | 309° |
| 2026-05-03 21:12 | 4.69752 | -74.14584 | 8371 ft | 2 kts | 309° |
| 2026-05-03 21:12 | 4.69748 | -74.14579 | 8371 ft | 0 kts | 308° |
| 2026-05-03 21:13 | 4.69756 | -74.14589 | 8370 ft | 4 kts | 308° |
| 2026-05-03 21:14 | 4.69786 | -74.14628 | 8370 ft | 10 kts | 307° |
| 2026-05-03 21:14 | 4.69835 | -74.14694 | 8370 ft | 14 kts | 307° |
| 2026-05-03 21:14 | 4.69902 | -74.14785 | 8370 ft | 18 kts | 306° |
| 2026-05-03 21:14 | 4.69930 | -74.14887 | 8371 ft | 15 kts | 229° |
| 2026-05-03 21:15 | 4.69862 | -74.14970 | 8371 ft | 16 kts | 275° |
| 2026-05-03 21:15 | 4.69930 | -74.15073 | 8370 ft | 20 kts | 308° |
| 2026-05-03 21:15 | 4.70019 | -74.15192 | 8371 ft | 23 kts | 307° |
| 2026-05-03 21:15 | 4.70123 | -74.15320 | 8371 ft | 23 kts | 308° |
| 2026-05-03 21:16 | 4.70217 | -74.15452 | 8370 ft | 23 kts | 307° |
| 2026-05-03 21:16 | 4.70310 | -74.15577 | 8370 ft | 22 kts | 308° |
| 2026-05-03 21:16 | 4.70402 | -74.15697 | 8370 ft | 22 kts | 308° |
| 2026-05-03 21:16 | 4.70492 | -74.15816 | 8371 ft | 21 kts | 307° |
| 2026-05-03 21:17 | 4.70578 | -74.15932 | 8370 ft | 21 kts | 308° |
| 2026-05-03 21:17 | 4.70636 | -74.16007 | 8371 ft | 20 kts | 307° |
| 2026-05-03 21:17 | 4.70747 | -74.16152 | 8371 ft | 20 kts | 308° |
| 2026-05-03 21:17 | 4.70830 | -74.16262 | 8371 ft | 19 kts | 307° |
| 2026-05-03 21:18 | 4.70910 | -74.16368 | 8371 ft | 19 kts | 307° |
| 2026-05-03 21:18 | 4.70989 | -74.16473 | 8371 ft | 19 kts | 306° |
| 2026-05-03 21:18 | 4.71069 | -74.16576 | 8370 ft | 19 kts | 307° |
| 2026-05-03 21:18 | 4.71140 | -74.16671 | 8371 ft | 13 kts | 307° |
| 2026-05-03 21:19 | 4.71191 | -74.16739 | 8371 ft | 11 kts | 307° |
| 2026-05-03 21:19 | 4.71199 | -74.16790 | 8371 ft | 6 kts | 245° |
| 2026-05-03 21:19 | 4.71176 | -74.16814 | 8371 ft | 0 kts | 219° |
| 2026-05-03 21:20 | 4.71169 | -74.16820 | 8371 ft | 4 kts | 219° |
| 2026-05-03 21:20 | 4.71137 | -74.16847 | 8371 ft | 8 kts | 219° |
| 2026-05-03 21:20 | 4.71072 | -74.16883 | 8372 ft | 13 kts | 196° |
| 2026-05-03 21:20 | 4.71002 | -74.16845 | 8372 ft | 15 kts | 129° |
| 2026-05-03 21:21 | 4.70833 | -74.16628 | 8372 ft | 68 kts | 128° |
| 2026-05-03 21:21 | 4.70443 | -74.16122 | 8373 ft | 114 kts | 125° |
| 2026-05-03 21:21 | 4.69890 | -74.15386 | 8372 ft | 152 kts | 128° |
| 2026-05-03 21:21 | 4.69182 | -74.14442 | 8407 ft | 178 kts | 126° |
| 2026-05-03 21:22 | 4.68499 | -74.13461 | 8620 ft | 175 kts | 125° |
| 2026-05-03 21:22 | 4.67811 | -74.12466 | 9108 ft | 169 kts | 126° |
| 2026-05-03 21:22 | 4.67243 | -74.11470 | 9647 ft | 162 kts | 105° |
| 2026-05-03 21:22 | 4.67177 | -74.10358 | 10026 ft | 162 kts | 76° |
| 2026-05-03 21:23 | 4.67670 | -74.09316 | 10282 ft | 170 kts | 51° |
| 2026-05-03 21:23 | 4.68637 | -74.08609 | 10496 ft | 180 kts | 21° |
| 2026-05-03 21:23 | 4.69881 | -74.08390 | 10785 ft | 185 kts | 9° |
| 2026-05-03 21:23 | 4.71164 | -74.08258 | 11070 ft | 185 kts | 9° |
| 2026-05-03 21:24 | 4.72469 | -74.08117 | 11261 ft | 195 kts | 9° |
| 2026-05-03 21:24 | 4.73862 | -74.07964 | 11381 ft | 207 kts | 9° |
| 2026-05-03 21:24 | 4.75294 | -74.07635 | 11511 ft | 218 kts | 21° |
| 2026-05-03 21:24 | 4.76784 | -74.07130 | 11667 ft | 234 kts | 21° |
| 2026-05-03 21:25 | 4.78377 | -74.06594 | 11854 ft | 247 kts | 21° |
| 2026-05-03 21:25 | 4.80037 | -74.06037 | 12136 ft | 258 kts | 21° |
| 2026-05-03 21:25 | 4.81800 | -74.05442 | 12283 ft | 277 kts | 21° |
| 2026-05-03 21:25 | 4.83684 | -74.04807 | 12524 ft | 294 kts | 21° |
| 2026-05-03 21:26 | 4.85667 | -74.04137 | 12851 ft | 306 kts | 21° |
| 2026-05-03 21:26 | 4.87699 | -74.03452 | 13415 ft | 309 kts | 21° |
| 2026-05-03 21:26 | 4.89751 | -74.02759 | 14006 ft | 312 kts | 21° |
| 2026-05-03 21:26 | 4.91814 | -74.02060 | 14518 ft | 315 kts | 21° |
| 2026-05-03 21:27 | 4.93903 | -74.01352 | 15020 ft | 317 kts | 21° |
| 2026-05-03 21:27 | 4.96000 | -74.00641 | 15522 ft | 319 kts | 21° |
| 2026-05-03 21:27 | 4.98106 | -73.99927 | 16027 ft | 322 kts | 21° |
| 2026-05-03 21:27 | 5.00235 | -73.99204 | 16506 ft | 324 kts | 21° |
| 2026-05-03 21:28 | 5.02384 | -73.98491 | 16992 ft | 327 kts | 20° |
| 2026-05-03 21:28 | 5.04583 | -73.97869 | 17450 ft | 330 kts | 17° |
| 2026-05-03 21:28 | 5.06816 | -73.97310 | 17916 ft | 333 kts | 17° |
| 2026-05-03 21:28 | 5.09080 | -73.96778 | 18373 ft | 336 kts | 16° |
| 2026-05-03 21:29 | 5.11380 | -73.96240 | 18587 ft | 346 kts | 16° |
| 2026-05-03 21:29 | 5.13773 | -73.95672 | 18676 ft | 359 kts | 16° |
| 2026-05-03 21:29 | 5.16247 | -73.95074 | 18767 ft | 371 kts | 17° |
| 2026-05-03 21:29 | 5.18793 | -73.94449 | 18890 ft | 383 kts | 17° |
| 2026-05-03 21:30 | 5.21406 | -73.93802 | 19180 ft | 389 kts | 17° |
| 2026-05-03 21:30 | 5.24037 | -73.93145 | 19556 ft | 392 kts | 17° |
| 2026-05-03 21:30 | 5.26688 | -73.92484 | 19934 ft | 394 kts | 17° |
| 2026-05-03 21:30 | 5.29361 | -73.91817 | 20340 ft | 396 kts | 17° |
| 2026-05-03 21:31 | 5.32045 | -73.91146 | 20747 ft | 399 kts | 17° |
| 2026-05-03 21:31 | 5.34746 | -73.90472 | 21141 ft | 401 kts | 16° |
| 2026-05-03 21:31 | 5.37467 | -73.89795 | 21539 ft | 404 kts | 16° |
| 2026-05-03 21:31 | 5.40200 | -73.89114 | 21923 ft | 406 kts | 16° |
| 2026-05-03 21:32 | 5.42948 | -73.88430 | 22297 ft | 409 kts | 16° |
| 2026-05-03 21:32 | 5.45680 | -73.87750 | 22671 ft | 411 kts | 16° |
| 2026-05-03 21:32 | 5.48459 | -73.87057 | 23021 ft | 414 kts | 16° |
| 2026-05-03 21:32 | 5.51303 | -73.86348 | 23371 ft | 416 kts | 16° |
| 2026-05-03 21:33 | 5.54083 | -73.85660 | 23672 ft | 419 kts | 15° |
| 2026-05-03 21:33 | 5.56932 | -73.85012 | 23948 ft | 421 kts | 14° |
| 2026-05-03 21:33 | 5.59807 | -73.84414 | 24255 ft | 423 kts | 13° |
| 2026-05-03 21:33 | 5.62750 | -73.83836 | 24577 ft | 425 kts | 13° |
| 2026-05-03 21:34 | 5.65662 | -73.83273 | 24872 ft | 427 kts | 13° |
| 2026-05-03 21:34 | 5.68580 | -73.82702 | 25144 ft | 429 kts | 13° |
| 2026-05-03 21:34 | 5.71477 | -73.82124 | 25415 ft | 431 kts | 13° |
| 2026-05-03 21:34 | 5.74420 | -73.81523 | 25679 ft | 432 kts | 13° |
| 2026-05-03 21:35 | 5.77374 | -73.80911 | 25937 ft | 434 kts | 13° |
| 2026-05-03 21:35 | 5.80370 | -73.80286 | 26182 ft | 436 kts | 13° |
| 2026-05-03 21:35 | 5.83347 | -73.79664 | 26421 ft | 438 kts | 13° |
| 2026-05-03 21:35 | 5.86330 | -73.79043 | 26670 ft | 439 kts | 13° |
| 2026-05-03 21:36 | 5.89329 | -73.78423 | 26892 ft | 441 kts | 13° |
| 2026-05-03 21:36 | 5.92343 | -73.77805 | 27138 ft | 443 kts | 13° |
| 2026-05-03 21:36 | 5.95330 | -73.77194 | 27393 ft | 444 kts | 13° |
| 2026-05-03 21:36 | 5.98402 | -73.76566 | 27650 ft | 446 kts | 12° |
| 2026-05-03 21:37 | 6.01409 | -73.75948 | 27857 ft | 448 kts | 13° |
| 2026-05-03 21:37 | 6.04462 | -73.75319 | 28075 ft | 449 kts | 13° |
| 2026-05-03 21:37 | 6.07534 | -73.74686 | 28287 ft | 451 kts | 13° |
| 2026-05-03 21:37 | 6.10608 | -73.74052 | 28478 ft | 452 kts | 13° |
| 2026-05-03 21:38 | 6.13700 | -73.73414 | 28697 ft | 454 kts | 12° |
| 2026-05-03 21:38 | 6.16789 | -73.72776 | 28892 ft | 455 kts | 12° |
| 2026-05-03 21:38 | 6.19903 | -73.72131 | 29081 ft | 457 kts | 12° |
| 2026-05-03 21:38 | 6.23025 | -73.71486 | 29271 ft | 458 kts | 12° |
| 2026-05-03 21:39 | 6.26153 | -73.70840 | 29469 ft | 460 kts | 12° |
| 2026-05-03 21:39 | 6.29284 | -73.70195 | 29630 ft | 461 kts | 12° |
| 2026-05-03 21:39 | 6.32434 | -73.69545 | 29795 ft | 463 kts | 12° |
| 2026-05-03 21:39 | 6.35595 | -73.68894 | 29963 ft | 464 kts | 12° |
| 2026-05-03 21:40 | 6.38761 | -73.68241 | 30114 ft | 466 kts | 12° |
| 2026-05-03 21:40 | 6.41936 | -73.67589 | 30254 ft | 467 kts | 12° |
| 2026-05-03 21:40 | 6.45133 | -73.66931 | 30399 ft | 468 kts | 12° |
| 2026-05-03 21:40 | 6.48322 | -73.66274 | 30529 ft | 469 kts | 12° |
| 2026-05-03 21:41 | 6.51523 | -73.65616 | 30694 ft | 469 kts | 12° |
| 2026-05-03 21:41 | 6.54715 | -73.64959 | 30902 ft | 468 kts | 12° |
| 2026-05-03 21:41 | 6.57909 | -73.64299 | 31128 ft | 467 kts | 12° |
| 2026-05-03 21:41 | 6.61087 | -73.63640 | 31329 ft | 467 kts | 12° |
| 2026-05-03 21:42 | 6.64271 | -73.62980 | 31531 ft | 466 kts | 12° |
| 2026-05-03 21:42 | 6.67443 | -73.62325 | 31744 ft | 465 kts | 12° |
| 2026-05-03 21:42 | 6.70611 | -73.61672 | 31959 ft | 465 kts | 12° |
| 2026-05-03 21:42 | 6.73779 | -73.61020 | 32169 ft | 464 kts | 12° |
| 2026-05-03 21:43 | 6.76937 | -73.60372 | 32373 ft | 463 kts | 12° |
| 2026-05-03 21:43 | 6.80086 | -73.59726 | 32574 ft | 463 kts | 12° |
| 2026-05-03 21:43 | 6.83249 | -73.59072 | 32778 ft | 462 kts | 12° |
| 2026-05-03 21:43 | 6.86387 | -73.58421 | 32982 ft | 461 kts | 12° |
| 2026-05-03 21:44 | 6.89531 | -73.57768 | 33190 ft | 461 kts | 12° |
| 2026-05-03 21:44 | 6.92668 | -73.57119 | 33411 ft | 460 kts | 12° |
| 2026-05-03 21:44 | 6.95804 | -73.56472 | 33622 ft | 459 kts | 12° |
| 2026-05-03 21:44 | 6.98929 | -73.55821 | 33835 ft | 458 kts | 13° |
| 2026-05-03 21:45 | 7.02030 | -73.55112 | 34028 ft | 457 kts | 14° |
| 2026-05-03 21:45 | 7.05120 | -73.54346 | 34199 ft | 456 kts | 15° |
| 2026-05-03 21:45 | 7.08196 | -73.53553 | 34367 ft | 456 kts | 15° |
| 2026-05-03 21:45 | 7.11260 | -73.52754 | 34526 ft | 455 kts | 15° |
| 2026-05-03 21:46 | 7.14325 | -73.51964 | 34686 ft | 455 kts | 14° |
| 2026-05-03 21:46 | 7.17355 | -73.51195 | 34850 ft | 455 kts | 14° |
| 2026-05-03 21:46 | 7.23470 | -73.49678 | 34888 ft | 455 kts | 14° |
| 2026-05-03 21:47 | 7.29655 | -73.48156 | 34891 ft | 461 kts | 14° |
| 2026-05-03 21:47 | 7.35924 | -73.46597 | 34886 ft | 467 kts | 14° |
| 2026-05-03 21:48 | 7.42263 | -73.45016 | 34876 ft | 471 kts | 13° |
| 2026-05-03 21:48 | 7.48649 | -73.43437 | 34886 ft | 474 kts | 13° |
| 2026-05-03 21:49 | 7.55058 | -73.41848 | 34888 ft | 475 kts | 13° |
| 2026-05-03 21:49 | 7.61475 | -73.40244 | 34895 ft | 475 kts | 13° |
| 2026-05-03 21:50 | 7.67890 | -73.38643 | 34904 ft | 476 kts | 13° |
| 2026-05-03 21:50 | 7.74330 | -73.37043 | 34914 ft | 476 kts | 13° |
| 2026-05-03 21:51 | 7.80751 | -73.35440 | 34924 ft | 475 kts | 13° |
| 2026-05-03 21:51 | 7.87161 | -73.33843 | 34932 ft | 475 kts | 13° |
| 2026-05-03 21:52 | 7.92506 | -73.32513 | 34941 ft | 475 kts | 13° |
| 2026-05-03 21:52 | 7.98958 | -73.30906 | 34944 ft | 474 kts | 13° |
| 2026-05-03 21:53 | 8.05325 | -73.29318 | 34951 ft | 474 kts | 13° |
| 2026-05-03 21:53 | 8.11736 | -73.27722 | 34956 ft | 474 kts | 13° |
| 2026-05-03 21:54 | 8.18133 | -73.26126 | 34959 ft | 474 kts | 13° |
| 2026-05-03 21:54 | 8.24543 | -73.24525 | 34955 ft | 474 kts | 13° |
| 2026-05-03 21:55 | 8.30949 | -73.22931 | 34950 ft | 475 kts | 13° |
| 2026-05-03 21:55 | 8.37363 | -73.21329 | 34948 ft | 474 kts | 13° |
| 2026-05-03 21:56 | 8.43771 | -73.19718 | 34944 ft | 475 kts | 13° |
| 2026-05-03 21:56 | 8.50185 | -73.18109 | 34939 ft | 475 kts | 13° |
| 2026-05-03 21:57 | 8.56598 | -73.16509 | 34937 ft | 475 kts | 13° |
| 2026-05-03 21:57 | 8.63013 | -73.14906 | 34931 ft | 475 kts | 13° |
| 2026-05-03 21:58 | 8.69429 | -73.13300 | 34926 ft | 475 kts | 13° |
| 2026-05-03 21:58 | 8.75837 | -73.11695 | 34917 ft | 475 kts | 13° |
| 2026-05-03 21:59 | 8.82269 | -73.10086 | 34914 ft | 476 kts | 13° |
| 2026-05-03 21:59 | 8.88691 | -73.08480 | 34910 ft | 476 kts | 13° |
| 2026-05-03 22:00 | 8.95108 | -73.06873 | 34909 ft | 476 kts | 13° |
| 2026-05-03 22:00 | 9.01535 | -73.05256 | 34909 ft | 475 kts | 13° |
| 2026-05-03 22:01 | 9.07960 | -73.03643 | 34907 ft | 475 kts | 13° |
| 2026-05-03 22:01 | 9.14377 | -73.02039 | 34904 ft | 475 kts | 13° |
| 2026-05-03 22:02 | 9.20803 | -73.00428 | 34904 ft | 475 kts | 13° |
| 2026-05-03 22:02 | 9.27212 | -72.98818 | 34909 ft | 475 kts | 13° |
| 2026-05-03 22:03 | 9.33624 | -72.97202 | 34903 ft | 475 kts | 13° |
| 2026-05-03 22:03 | 9.40019 | -72.95595 | 34914 ft | 474 kts | 13° |
| 2026-05-03 22:04 | 9.46433 | -72.93982 | 34922 ft | 474 kts | 13° |
| 2026-05-03 22:04 | 9.52846 | -72.92372 | 34933 ft | 474 kts | 13° |
| 2026-05-03 22:05 | 9.59254 | -72.90762 | 34937 ft | 475 kts | 14° |
| 2026-05-03 22:05 | 9.65661 | -72.89147 | 34940 ft | 474 kts | 14° |
| 2026-05-03 22:06 | 9.72071 | -72.87535 | 34939 ft | 474 kts | 14° |
| 2026-05-03 22:06 | 9.78467 | -72.85926 | 34939 ft | 473 kts | 14° |
| 2026-05-03 22:07 | 9.84854 | -72.84318 | 34945 ft | 473 kts | 14° |
| 2026-05-03 22:07 | 9.91246 | -72.82703 | 34949 ft | 473 kts | 14° |
| 2026-05-03 22:08 | 9.97636 | -72.81089 | 34956 ft | 473 kts | 14° |
| 2026-05-03 22:08 | 10.04029 | -72.79480 | 34962 ft | 473 kts | 14° |
| 2026-05-03 22:09 | 10.10409 | -72.77878 | 34972 ft | 473 kts | 14° |
| 2026-05-03 22:10 | 10.19987 | -72.75459 | 34976 ft | 472 kts | 14° |
| 2026-05-03 22:10 | 10.26356 | -72.73844 | 34976 ft | 472 kts | 14° |
| 2026-05-03 22:11 | 10.32735 | -72.72232 | 34975 ft | 472 kts | 13° |
| 2026-05-03 22:11 | 10.39110 | -72.70619 | 34974 ft | 472 kts | 13° |
| 2026-05-03 22:12 | 10.45482 | -72.69015 | 34968 ft | 472 kts | 13° |
| 2026-05-03 22:12 | 10.51858 | -72.67403 | 34965 ft | 472 kts | 13° |
| 2026-05-03 22:13 | 10.58220 | -72.65790 | 34948 ft | 472 kts | 13° |
| 2026-05-03 22:13 | 10.64584 | -72.64176 | 34950 ft | 471 kts | 13° |
| 2026-05-03 22:14 | 10.70947 | -72.62564 | 34935 ft | 471 kts | 13° |
| 2026-05-03 22:14 | 10.77314 | -72.60949 | 34926 ft | 471 kts | 13° |
| 2026-05-03 22:15 | 10.83666 | -72.59338 | 34926 ft | 471 kts | 13° |
| 2026-05-03 22:15 | 10.90039 | -72.57723 | 34931 ft | 472 kts | 13° |
| 2026-05-03 22:16 | 10.96411 | -72.56105 | 34918 ft | 472 kts | 13° |
| 2026-05-03 22:16 | 11.02789 | -72.54485 | 34913 ft | 472 kts | 13° |
| 2026-05-03 22:17 | 11.09166 | -72.52868 | 34912 ft | 473 kts | 13° |
| 2026-05-03 22:17 | 11.15557 | -72.51246 | 34909 ft | 473 kts | 13° |
| 2026-05-03 22:18 | 11.21959 | -72.49622 | 34907 ft | 474 kts | 13° |
| 2026-05-03 22:18 | 11.28218 | -72.47495 | 34899 ft | 476 kts | 18° |
| 2026-05-03 22:19 | 11.34469 | -72.45249 | 34888 ft | 477 kts | 18° |
| 2026-05-03 22:19 | 11.40729 | -72.43005 | 34899 ft | 477 kts | 18° |
| 2026-05-03 22:20 | 11.46995 | -72.40764 | 34899 ft | 478 kts | 18° |
| 2026-05-03 22:20 | 11.53263 | -72.38510 | 34891 ft | 478 kts | 18° |
| 2026-05-03 22:21 | 11.59542 | -72.36257 | 34897 ft | 478 kts | 18° |
| 2026-05-03 22:21 | 11.65820 | -72.34003 | 34901 ft | 479 kts | 18° |
| 2026-05-03 22:22 | 11.72106 | -72.31747 | 34891 ft | 479 kts | 18° |
| 2026-05-03 22:22 | 11.78399 | -72.29489 | 34895 ft | 479 kts | 18° |
| 2026-05-03 22:23 | 11.84696 | -72.27216 | 34899 ft | 480 kts | 18° |
| 2026-05-03 22:23 | 11.91000 | -72.24938 | 34899 ft | 481 kts | 18° |
| 2026-05-03 22:24 | 11.97312 | -72.22663 | 34903 ft | 481 kts | 18° |
| 2026-05-03 22:24 | 12.03631 | -72.20387 | 34903 ft | 481 kts | 17° |
| 2026-05-03 22:25 | 12.09941 | -72.18107 | 34911 ft | 482 kts | 17° |
| 2026-05-03 22:25 | 12.16261 | -72.15835 | 34911 ft | 482 kts | 17° |
| 2026-05-03 22:26 | 12.22598 | -72.13558 | 34916 ft | 482 kts | 17° |
| 2026-05-03 22:26 | 12.28922 | -72.11277 | 34919 ft | 483 kts | 17° |
| 2026-05-03 22:27 | 12.35260 | -72.08986 | 34928 ft | 483 kts | 17° |
| 2026-05-03 22:27 | 12.41598 | -72.06689 | 34927 ft | 483 kts | 17° |
| 2026-05-03 22:28 | 12.47936 | -72.04402 | 34933 ft | 483 kts | 17° |
| 2026-05-03 22:28 | 12.54269 | -72.02114 | 34941 ft | 483 kts | 17° |
| 2026-05-03 22:29 | 12.60596 | -71.99813 | 34938 ft | 482 kts | 17° |
| 2026-05-03 22:29 | 12.66911 | -71.97517 | 34941 ft | 481 kts | 17° |
| 2026-05-03 22:30 | 12.73231 | -71.95226 | 34944 ft | 481 kts | 17° |
| 2026-05-03 22:30 | 12.79542 | -71.92943 | 34941 ft | 481 kts | 17° |
| 2026-05-03 22:31 | 12.85856 | -71.90652 | 34946 ft | 482 kts | 17° |
| 2026-05-03 22:31 | 12.92170 | -71.88358 | 34942 ft | 482 kts | 17° |
| 2026-05-03 22:32 | 12.98499 | -71.86061 | 34953 ft | 482 kts | 17° |
| 2026-05-03 22:32 | 13.04817 | -71.83768 | 34947 ft | 482 kts | 17° |
| 2026-05-03 22:33 | 13.10073 | -71.81851 | 34953 ft | 482 kts | 17° |
| 2026-05-03 22:33 | 13.16400 | -71.79548 | 34953 ft | 482 kts | 17° |
| 2026-05-03 22:34 | 13.22725 | -71.77248 | 34949 ft | 482 kts | 17° |
| 2026-05-03 22:34 | 13.29047 | -71.74950 | 34956 ft | 482 kts | 17° |
| 2026-05-03 22:35 | 13.35364 | -71.72646 | 34952 ft | 482 kts | 17° |
| 2026-05-03 22:35 | 13.41686 | -71.70339 | 34957 ft | 482 kts | 17° |
| 2026-05-03 22:36 | 13.48008 | -71.68038 | 34957 ft | 482 kts | 17° |
| 2026-05-03 22:36 | 13.54330 | -71.65725 | 34961 ft | 482 kts | 17° |
| 2026-05-03 22:37 | 13.60643 | -71.63419 | 34962 ft | 482 kts | 16° |
| 2026-05-03 22:37 | 13.66977 | -71.61109 | 34960 ft | 482 kts | 16° |
| 2026-05-03 22:38 | 13.73300 | -71.58803 | 34959 ft | 482 kts | 16° |
| 2026-05-03 22:38 | 13.79576 | -71.56500 | 34959 ft | 482 kts | 16° |
| 2026-05-03 22:39 | 13.85895 | -71.54181 | 34963 ft | 482 kts | 16° |
| 2026-05-03 22:39 | 13.92263 | -71.51857 | 34965 ft | 483 kts | 16° |
| 2026-05-03 22:40 | 13.98593 | -71.49544 | 34967 ft | 483 kts | 16° |
| 2026-05-03 22:40 | 14.04884 | -71.47235 | 34964 ft | 483 kts | 16° |
| 2026-05-03 22:41 | 14.11209 | -71.44906 | 34967 ft | 484 kts | 16° |
| 2026-05-03 22:41 | 14.17558 | -71.42573 | 34965 ft | 484 kts | 16° |
| 2026-05-03 22:42 | 14.23920 | -71.40243 | 34955 ft | 486 kts | 18° |
| 2026-05-03 22:42 | 14.30297 | -71.37900 | 34962 ft | 486 kts | 18° |
| 2026-05-03 22:43 | 14.36665 | -71.35561 | 34966 ft | 487 kts | 18° |
| 2026-05-03 22:43 | 14.43053 | -71.33211 | 34963 ft | 487 kts | 18° |
| 2026-05-03 22:44 | 14.49434 | -71.30858 | 34971 ft | 488 kts | 18° |
| 2026-05-03 22:44 | 14.55836 | -71.28499 | 34968 ft | 488 kts | 18° |
| 2026-05-03 22:45 | 14.62227 | -71.26146 | 34974 ft | 488 kts | 18° |
| 2026-05-03 22:45 | 14.68620 | -71.23789 | 34979 ft | 487 kts | 18° |
| 2026-05-03 22:46 | 14.75001 | -71.21428 | 34983 ft | 487 kts | 18° |
| 2026-05-03 22:46 | 14.81376 | -71.19078 | 34985 ft | 486 kts | 18° |
| 2026-05-03 22:47 | 14.87740 | -71.16728 | 34989 ft | 485 kts | 18° |
| 2026-05-03 22:47 | 14.94089 | -71.14377 | 34994 ft | 484 kts | 18° |
| 2026-05-03 22:48 | 15.00426 | -71.12035 | 34988 ft | 484 kts | 18° |
| 2026-05-03 22:48 | 15.06769 | -71.09681 | 34994 ft | 484 kts | 18° |
| 2026-05-03 22:49 | 15.13094 | -71.07340 | 34996 ft | 483 kts | 18° |
| 2026-05-03 22:49 | 15.19435 | -71.04991 | 34997 ft | 483 kts | 18° |
| 2026-05-03 22:50 | 15.25761 | -71.02644 | 34997 ft | 483 kts | 18° |
| 2026-05-03 22:50 | 15.32085 | -71.00297 | 35000 ft | 482 kts | 18° |
| 2026-05-03 22:51 | 15.38386 | -70.97960 | 35004 ft | 481 kts | 18° |
| 2026-05-03 22:51 | 15.44676 | -70.95623 | 35008 ft | 480 kts | 18° |
| 2026-05-03 22:52 | 15.50952 | -70.93291 | 35007 ft | 478 kts | 18° |
| 2026-05-03 22:52 | 15.57211 | -70.90957 | 35010 ft | 477 kts | 18° |
| 2026-05-03 22:53 | 15.63450 | -70.88630 | 35011 ft | 476 kts | 18° |
| 2026-05-03 22:53 | 15.69692 | -70.86307 | 35010 ft | 476 kts | 18° |
| 2026-05-03 22:54 | 15.75927 | -70.83993 | 35013 ft | 476 kts | 17° |
| 2026-05-03 22:54 | 15.82167 | -70.81663 | 35010 ft | 476 kts | 18° |
| 2026-05-03 22:55 | 15.88394 | -70.79330 | 35012 ft | 476 kts | 18° |
| 2026-05-03 22:55 | 15.94619 | -70.77001 | 35006 ft | 476 kts | 17° |
| 2026-05-03 22:56 | 16.00795 | -70.74518 | 34999 ft | 478 kts | 25° |
| 2026-05-03 22:56 | 16.06612 | -70.71147 | 34999 ft | 479 kts | 27° |
| 2026-05-03 22:57 | 16.12411 | -70.67764 | 35008 ft | 478 kts | 27° |
| 2026-05-03 22:57 | 16.18209 | -70.64363 | 35010 ft | 478 kts | 27° |
| 2026-05-03 22:58 | 16.24011 | -70.60964 | 35013 ft | 478 kts | 27° |
| 2026-05-03 22:58 | 16.29777 | -70.57600 | 35015 ft | 478 kts | 27° |
| 2026-05-03 22:59 | 16.35584 | -70.54212 | 35006 ft | 478 kts | 27° |
| 2026-05-03 22:59 | 16.41374 | -70.50819 | 35001 ft | 478 kts | 27° |
| 2026-05-03 23:00 | 16.47213 | -70.47394 | 35005 ft | 478 kts | 27° |
| 2026-05-03 23:00 | 16.52973 | -70.44023 | 35008 ft | 478 kts | 27° |
| 2026-05-03 23:01 | 16.58761 | -70.40620 | 35009 ft | 478 kts | 27° |
| 2026-05-03 23:01 | 16.64564 | -70.37206 | 35011 ft | 478 kts | 27° |
| 2026-05-03 23:02 | 16.70362 | -70.33806 | 35011 ft | 478 kts | 27° |
| 2026-05-03 23:02 | 16.76155 | -70.30403 | 35022 ft | 478 kts | 27° |
| 2026-05-03 23:03 | 16.81957 | -70.26990 | 35029 ft | 478 kts | 27° |
| 2026-05-03 23:03 | 16.87745 | -70.23578 | 35027 ft | 478 kts | 27° |
| 2026-05-03 23:04 | 16.93545 | -70.20155 | 35031 ft | 478 kts | 27° |
| 2026-05-03 23:04 | 16.99332 | -70.16743 | 35030 ft | 478 kts | 27° |
| 2026-05-03 23:05 | 17.05132 | -70.13323 | 35025 ft | 479 kts | 27° |
| 2026-05-03 23:05 | 17.10929 | -70.09901 | 35030 ft | 479 kts | 27° |
| 2026-05-03 23:06 | 17.16718 | -70.06473 | 35030 ft | 479 kts | 27° |
| 2026-05-03 23:06 | 17.22522 | -70.03043 | 35032 ft | 479 kts | 27° |
| 2026-05-03 23:07 | 17.28319 | -69.99627 | 35037 ft | 479 kts | 27° |
| 2026-05-03 23:07 | 17.34124 | -69.96194 | 35036 ft | 479 kts | 27° |
| 2026-05-03 23:08 | 17.39918 | -69.92753 | 35039 ft | 479 kts | 27° |
| 2026-05-03 23:08 | 17.45715 | -69.89307 | 35039 ft | 479 kts | 27° |
| 2026-05-03 23:09 | 17.51512 | -69.85869 | 35044 ft | 479 kts | 27° |
| 2026-05-03 23:09 | 17.57316 | -69.82426 | 35041 ft | 479 kts | 27° |
| 2026-05-03 23:10 | 17.63451 | -69.79961 | 35031 ft | 472 kts | 6° |
| 2026-05-03 23:10 | 17.69942 | -69.78898 | 35030 ft | 473 kts | 7° |
| 2026-05-03 23:11 | 17.76407 | -69.77826 | 35036 ft | 473 kts | 7° |
| 2026-05-03 23:11 | 17.82902 | -69.76751 | 35043 ft | 473 kts | 7° |
| 2026-05-03 23:11 | 17.86157 | -69.76215 | 34479 ft | 474 kts | 7° |
| 2026-05-03 23:12 | 17.89410 | -69.75677 | 33329 ft | 470 kts | 7° |
| 2026-05-03 23:12 | 17.92580 | -69.75150 | 32895 ft | 450 kts | 7° |
| 2026-05-03 23:12 | 17.95609 | -69.74645 | 32378 ft | 434 kts | 8° |
| 2026-05-03 23:12 | 17.98563 | -69.74149 | 31635 ft | 426 kts | 8° |
| 2026-05-03 23:13 | 18.01469 | -69.73664 | 30852 ft | 421 kts | 8° |
| 2026-05-03 23:13 | 18.04344 | -69.73186 | 30070 ft | 416 kts | 9° |
| 2026-05-03 23:13 | 18.07189 | -69.72717 | 29175 ft | 411 kts | 9° |
| 2026-05-03 23:13 | 18.09997 | -69.72257 | 28334 ft | 406 kts | 9° |
| 2026-05-03 23:14 | 18.12745 | -69.71819 | 27888 ft | 391 kts | 6° |
| 2026-05-03 23:14 | 18.15394 | -69.71887 | 27509 ft | 374 kts | 348° |
| 2026-05-03 23:14 | 18.17871 | -69.72640 | 26851 ft | 368 kts | 342° |
| 2026-05-03 23:14 | 18.20290 | -69.73483 | 26133 ft | 365 kts | 341° |
| 2026-05-03 23:15 | 18.22682 | -69.74332 | 25450 ft | 362 kts | 341° |
| 2026-05-03 23:15 | 18.25055 | -69.75178 | 24782 ft | 358 kts | 341° |
| 2026-05-03 23:15 | 18.27407 | -69.76012 | 24132 ft | 355 kts | 341° |
| 2026-05-03 23:15 | 18.29740 | -69.76831 | 23477 ft | 352 kts | 341° |
| 2026-05-03 23:16 | 18.32039 | -69.77636 | 22893 ft | 344 kts | 341° |
| 2026-05-03 23:16 | 18.34319 | -69.78436 | 22015 ft | 346 kts | 340° |
| 2026-05-03 23:16 | 18.36612 | -69.79240 | 21156 ft | 349 kts | 340° |
| 2026-05-03 23:16 | 18.38923 | -69.80050 | 20319 ft | 350 kts | 340° |
| 2026-05-03 23:17 | 18.41233 | -69.80859 | 19508 ft | 352 kts | 339° |
| 2026-05-03 23:17 | 18.42775 | -69.81398 | 18980 ft | 352 kts | 339° |
| 2026-05-03 23:17 | 18.45102 | -69.82212 | 18182 ft | 352 kts | 339° |
| 2026-05-03 23:17 | 18.47432 | -69.83028 | 17285 ft | 352 kts | 339° |
| 2026-05-03 23:18 | 18.49757 | -69.83841 | 16424 ft | 352 kts | 340° |
| 2026-05-03 23:18 | 18.52079 | -69.84656 | 15577 ft | 351 kts | 340° |
| 2026-05-03 23:18 | 18.54393 | -69.85472 | 14756 ft | 350 kts | 340° |
| 2026-05-03 23:18 | 18.56765 | -69.85971 | 13950 ft | 348 kts | 2° |
| 2026-05-03 23:19 | 18.59081 | -69.85356 | 13077 ft | 344 kts | 30° |
| 2026-05-03 23:19 | 18.60845 | -69.83711 | 12210 ft | 340 kts | 57° |
| 2026-05-03 23:19 | 18.61668 | -69.81418 | 11365 ft | 335 kts | 85° |
| 2026-05-03 23:19 | 18.61549 | -69.78995 | 10538 ft | 331 kts | 99° |
| 2026-05-03 23:20 | 18.61175 | -69.76615 | 9728 ft | 327 kts | 99° |
| 2026-05-03 23:20 | 18.60581 | -69.74326 | 8843 ft | 322 kts | 118° |
| 2026-05-03 23:20 | 18.59125 | -69.72583 | 7991 ft | 318 kts | 144° |
| 2026-05-03 23:20 | 18.57185 | -69.71493 | 7154 ft | 315 kts | 157° |
| 2026-05-03 23:21 | 18.55114 | -69.70774 | 6345 ft | 313 kts | 163° |
| 2026-05-03 23:21 | 18.53002 | -69.70291 | 5481 ft | 310 kts | 176° |
| 2026-05-03 23:21 | 18.50874 | -69.70596 | 4637 ft | 309 kts | 196° |
| 2026-05-03 23:21 | 18.48962 | -69.71570 | 3824 ft | 305 kts | 213° |
| 2026-05-03 23:22 | 18.46595 | -69.75068 | 2661 ft | 286 kts | 256° |
| 2026-05-03 23:22 | 18.46451 | -69.77053 | 2546 ft | 260 kts | 276° |
| 2026-05-03 23:22 | 18.46864 | -69.78780 | 2555 ft | 231 kts | 294° |
| 2026-05-03 23:23 | 18.47640 | -69.80158 | 2553 ft | 211 kts | 310° |
| 2026-05-03 23:23 | 18.48692 | -69.81235 | 2561 ft | 211 kts | 325° |
| 2026-05-03 23:23 | 18.49958 | -69.81988 | 2562 ft | 209 kts | 338° |
| 2026-05-03 23:23 | 18.51313 | -69.82542 | 2568 ft | 210 kts | 342° |
| 2026-05-03 23:24 | 18.52696 | -69.83030 | 2565 ft | 210 kts | 348° |
| 2026-05-03 23:24 | 18.54137 | -69.83168 | 2563 ft | 209 kts | 6° |
| 2026-05-03 23:24 | 18.55556 | -69.82892 | 2563 ft | 205 kts | 21° |
| 2026-05-03 23:24 | 18.56856 | -69.82271 | 2567 ft | 204 kts | 35° |
| 2026-05-03 23:25 | 18.57960 | -69.81345 | 2565 ft | 202 kts | 50° |
| 2026-05-03 23:25 | 18.58799 | -69.80179 | 2564 ft | 199 kts | 64° |
| 2026-05-03 23:25 | 18.59338 | -69.78847 | 2566 ft | 196 kts | 77° |
| 2026-05-03 23:25 | 18.59555 | -69.77431 | 2563 ft | 196 kts | 91° |
| 2026-05-03 23:26 | 18.59441 | -69.76012 | 2563 ft | 193 kts | 104° |
| 2026-05-03 23:26 | 18.59008 | -69.74679 | 2564 ft | 193 kts | 117° |
| 2026-05-03 23:26 | 18.58292 | -69.73494 | 2563 ft | 192 kts | 130° |
| 2026-05-03 23:26 | 18.57360 | -69.72540 | 2600 ft | 179 kts | 142° |
| 2026-05-03 23:27 | 18.56349 | -69.71889 | 2577 ft | 163 kts | 154° |
| 2026-05-03 23:27 | 18.55275 | -69.71438 | 2563 ft | 168 kts | 159° |
| 2026-05-03 23:27 | 18.54170 | -69.71029 | 2562 ft | 168 kts | 159° |
| 2026-05-03 23:27 | 18.53089 | -69.70635 | 2427 ft | 163 kts | 159° |
| 2026-05-03 23:28 | 18.52020 | -69.70238 | 2122 ft | 160 kts | 159° |
| 2026-05-03 23:28 | 18.51019 | -69.69867 | 1865 ft | 147 kts | 159° |
| 2026-05-03 23:28 | 18.50079 | -69.69518 | 1607 ft | 141 kts | 159° |
| 2026-05-03 23:28 | 18.49154 | -69.69174 | 1362 ft | 141 kts | 159° |
| 2026-05-03 23:29 | 18.48232 | -69.68829 | 1121 ft | 141 kts | 159° |
| 2026-05-03 23:29 | 18.47314 | -69.68484 | 882 ft | 139 kts | 159° |
| 2026-05-03 23:29 | 18.46393 | -69.68142 | 650 ft | 142 kts | 161° |
| 2026-05-03 23:29 | 18.45458 | -69.67798 | 391 ft | 141 kts | 160° |
| 2026-05-03 23:30 | 18.44532 | -69.67478 | 161 ft | 140 kts | 159° |
| 2026-05-03 23:30 | 18.43652 | -69.67140 | 69 ft | 124 kts | 161° |
| 2026-05-03 23:30 | 18.42934 | -69.66872 | 65 ft | 88 kts | 156° |
| 2026-05-03 23:30 | 18.42561 | -69.66735 | 65 ft | 34 kts | 161° |
| 2026-05-03 23:31 | 18.42385 | -69.66678 | 68 ft | 22 kts | 160° |
| 2026-05-03 23:31 | 18.42241 | -69.66652 | 65 ft | 19 kts | 218° |
| 2026-05-03 23:31 | 18.42232 | -69.66752 | 65 ft | 0 kts | 294° |
| 2026-05-03 23:32 | 18.42236 | -69.66760 | 66 ft | 6 kts | 294° |
| 2026-05-03 23:32 | 18.42268 | -69.66830 | 65 ft | 12 kts | 309° |
| 2026-05-03 23:32 | 18.42382 | -69.66876 | 65 ft | 24 kts | 339° |
| 2026-05-03 23:32 | 18.42561 | -69.66943 | 62 ft | 27 kts | 342° |
| 2026-05-03 23:33 | 18.42745 | -69.67004 | 65 ft | 28 kts | 341° |
| 2026-05-03 23:33 | 18.42918 | -69.67070 | 71 ft | 19 kts | 334° |
| 2026-05-03 23:33 | 18.42954 | -69.67183 | 65 ft | 19 kts | 273° |
| 2026-05-03 23:33 | 18.42966 | -69.67324 | 62 ft | 19 kts | 278° |
| 2026-05-03 23:34 | 18.42954 | -69.67411 | 60 ft | 9 kts | 250° |
| 2026-05-03 23:34 | 18.42946 | -69.67435 | 66 ft | 2 kts | 250° |
| 2026-05-03 23:34 | 18.42943 | -69.67444 | 64 ft | 0 kts | 251° |
| 2026-05-03 23:34 | 18.42942 | -69.67447 | 63 ft | 0 kts | 251° |